MKJP

Details ICAO MKJP (KIN)
Name Norman Manley Intl
Region Jamaica
Timezone Unknown (UTC+0.0)
Plans Departing 431
Arriving 379
Stats Elevation 10 ft / 3 m (AMSL)
Location 17.935665° -76.787560°
Runways 1
Magnetic Variation 7.542° W
Sunrise 2017-12-18 11:33:34 UTC / 2017-12-18 11:33:34 Local
Sunset 2017-12-18 22:36:52 UTC / 2017-12-18 22:36:52 Local
Advertisement - Login to hide

Runways

ID Width Length Bearing (true) Bearing (mag) Surface Threshold Offset Overrun Length
12 150 ft / 46 m 8,912 ft / 2,717 m 112.09° 119.63° Asphalt 0 ft / 0 m 0 ft / 0 m
30 150 ft / 46 m 8,912 ft / 2,717 m 292.10° 299.64° Asphalt 0 ft / 0 m 0 ft / 0 m

Approach Navaids

Runway Type Ident Frequency Range Bearing (true) Bearing (mag) Slope Elevation
12 Localiser IMLY 109.10 MHz 18 nm / 33 km 115.09° 122.64° - 10 ft / 3 m (AMSL)
12 Glidescope IMLY 109.10 MHz 10 nm / 19 km 115.09° 122.64° 3.00° 8 ft / 2 m (AMSL)

Map

Weather


0- 5 10 15 20 25 30 35+ Temperature / ° C

Clouds and Precipitation
Forecast for 2017-12-18 18:00 UTC. Updated 2 hours ago

Ground ~20,000 ft ~40,000 ft Winds

METAR

MKJP 181900Z 19006KT 9999 FEW024 31/22 Q1014

TAF

TAF MKJP 181715Z 1818/1918 14015KT 9999 FEW024 BECMG 1900/1902 35003KT BECMG 1915/1917 14012KT

Frequencies

Recorded 127.70 MHz ATIS
Tower 118.65 MHz MANLEY TWR
Ground 121.70 MHz GND
Approach 120.60 MHz MANLEY APP
Warning: Do not use this data for real-world aviation or navigation. No guarantee of current accuracy is given.